createdAt,value
2023-05-09T00:00:24.243Z,4.30
2023-05-09T00:04:36.776Z,5.25
2023-05-09T00:08:49.395Z,4.55
2023-05-09T00:13:01.935Z,4.22
2023-05-09T00:17:15.274Z,4.90
2023-05-09T00:21:30.033Z,4.85
2023-05-09T00:25:42.457Z,4.43
2023-05-09T00:29:54.964Z,4.35
2023-05-09T00:34:07.452Z,3.85
2023-05-09T00:38:20.031Z,4.50
2023-05-09T00:42:32.486Z,4.88
2023-05-09T00:46:45.641Z,4.22
2023-05-09T00:51:08.458Z,4.15
2023-05-09T00:55:20.928Z,4.15
2023-05-09T00:59:33.591Z,4.25
2023-05-09T01:03:46.440Z,4.45
2023-05-09T01:08:07.668Z,3.70
2023-05-09T01:12:30.341Z,4.40
2023-05-09T01:16:54.876Z,4.85
2023-05-09T01:21:20.395Z,4.05
2023-05-09T01:26:06.385Z,4.75
2023-05-09T01:30:20.553Z,3.92
2023-05-09T01:34:36.518Z,4.53
2023-05-09T01:38:53.510Z,4.18
2023-05-09T01:43:10.581Z,3.78
2023-05-09T01:47:24.398Z,4.63
2023-05-09T01:51:41.128Z,4.32
2023-05-09T01:55:56.154Z,3.67
2023-05-09T02:00:11.941Z,4.13
2023-05-09T02:04:25.705Z,4.15
2023-05-09T02:08:38.774Z,4.55
2023-05-09T02:12:59.257Z,4.85
2023-05-09T02:17:11.810Z,4.20
2023-05-09T02:21:24.732Z,4.72
2023-05-09T02:25:37.538Z,3.83
2023-05-09T02:29:52.740Z,4.35
2023-05-09T02:34:06.391Z,3.70
2023-05-09T02:38:20.037Z,4.20
2023-05-09T02:42:32.558Z,4.43
2023-05-09T02:46:45.054Z,3.85
2023-05-09T02:50:58.628Z,3.85
2023-05-09T02:55:11.572Z,3.95
2023-05-09T02:59:24.124Z,3.97
2023-05-09T03:03:40.528Z,4.47
2023-05-09T03:07:55.795Z,3.97
2023-05-09T03:12:08.476Z,4.35
2023-05-09T03:16:21.276Z,4.38
2023-05-09T03:20:34.139Z,2.95
2023-05-09T03:24:47.797Z,5.07
2023-05-09T03:29:00.288Z,3.47
2023-05-09T03:33:12.763Z,4.20
2023-05-09T03:37:27.032Z,3.10
2023-05-09T03:41:50.050Z,4.35
2023-05-09T03:46:02.514Z,3.88
2023-05-09T03:50:15.041Z,3.65
2023-05-09T03:54:27.490Z,3.97
2023-05-09T03:58:40.081Z,4.30
2023-05-09T04:02:52.602Z,3.72
2023-05-09T04:07:06.026Z,3.28
2023-05-09T04:11:18.532Z,3.30
2023-05-09T04:15:31.054Z,3.28
2023-05-09T04:19:43.521Z,3.88
2023-05-09T04:23:55.975Z,3.40
2023-05-09T04:28:09.065Z,3.65
2023-05-09T04:32:21.752Z,3.25
2023-05-09T04:36:34.639Z,3.53
2023-05-09T04:40:47.105Z,3.92
2023-05-09T04:44:59.572Z,3.75
2023-05-09T04:49:11.999Z,3.63
2023-05-09T04:53:24.489Z,3.83
2023-05-09T04:57:37.596Z,2.97
2023-05-09T05:01:50.166Z,3.33
2023-05-09T05:06:02.613Z,2.45
2023-05-09T05:10:16.078Z,2.70
2023-05-09T05:14:28.583Z,3.03
2023-05-09T05:18:41.778Z,3.08
2023-05-09T05:22:55.693Z,3.45
2023-05-09T05:27:08.223Z,2.80
2023-05-09T05:31:20.776Z,2.65
2023-05-09T05:35:33.275Z,3.05
2023-05-09T05:39:45.693Z,2.15
2023-05-09T05:43:58.111Z,2.63
2023-05-09T05:48:10.686Z,2.35
2023-05-09T05:52:23.136Z,2.72
2023-05-09T05:56:35.641Z,3.15
2023-05-09T06:00:48.159Z,2.67
2023-05-09T06:05:00.578Z,2.65
2023-05-09T06:09:13.034Z,2.38
2023-05-09T06:13:28.901Z,2.95
2023-05-09T06:17:45.539Z,2.90
2023-05-09T06:22:07.965Z,2.60
2023-05-09T06:26:20.425Z,2.47
2023-05-09T06:30:42.862Z,2.58
2023-05-09T06:34:55.895Z,2.80
2023-05-09T06:39:08.320Z,2.78
2023-05-09T06:43:20.736Z,2.95
2023-05-09T06:47:33.252Z,2.78
2023-05-09T06:51:50.034Z,2.67
2023-05-09T06:56:12.946Z,2.88
2023-05-09T07:00:36.417Z,2.53
2023-05-09T07:04:49.133Z,3.10
2023-05-09T07:09:01.676Z,3.38
2023-05-09T07:13:14.312Z,3.40
2023-05-09T07:17:27.373Z,3.35
2023-05-09T07:21:40.039Z,3.15
2023-05-09T07:26:00.286Z,3.40
2023-05-09T07:30:13.949Z,3.47
2023-05-09T07:34:31.082Z,2.93
2023-05-09T07:38:43.834Z,3.40
2023-05-09T07:42:57.509Z,4.00
2023-05-09T07:47:10.208Z,3.35
2023-05-09T07:51:22.844Z,3.78
2023-05-09T07:55:35.386Z,4.38
2023-05-09T07:59:48.005Z,3.83
2023-05-09T08:04:00.649Z,3.10
2023-05-09T08:08:13.231Z,3.83
2023-05-09T08:12:35.764Z,3.20
2023-05-09T08:16:48.239Z,3.10
2023-05-09T08:21:01.865Z,3.58
2023-05-09T08:25:24.378Z,3.97
2023-05-09T08:29:36.782Z,3.65
2023-05-09T08:33:49.238Z,3.60
2023-05-09T08:38:02.201Z,4.22
2023-05-09T08:42:25.615Z,4.35
2023-05-09T08:46:44.447Z,4.38
2023-05-09T08:50:58.571Z,4.03
2023-05-09T08:55:11.990Z,4.68
2023-05-09T08:59:25.882Z,4.15
2023-05-09T09:03:50.362Z,4.28
2023-05-09T09:08:06.147Z,4.90
2023-05-09T09:12:19.157Z,4.65
2023-05-09T09:16:44.766Z,4.75
2023-05-09T09:21:10.914Z,4.60
2023-05-09T09:25:23.366Z,4.88
2023-05-09T09:29:36.032Z,4.80
2023-05-09T09:34:03.288Z,4.88
2023-05-09T09:38:26.279Z,5.10
2023-05-09T09:42:47.136Z,4.68
2023-05-09T09:46:59.622Z,4.70
2023-05-09T09:51:12.549Z,4.95
2023-05-09T09:55:25.780Z,4.78
2023-05-09T09:59:38.244Z,4.70
2023-05-09T10:03:50.805Z,4.05
2023-05-09T10:08:05.512Z,4.53
2023-05-09T10:12:28.068Z,4.50
2023-05-09T10:16:52.838Z,4.43
2023-05-09T10:21:08.874Z,4.18
2023-05-09T10:25:23.130Z,4.53
2023-05-09T10:29:39.239Z,4.50
2023-05-09T10:33:52.899Z,4.38
2023-05-09T10:38:13.374Z,5.32
2023-05-09T10:42:26.393Z,4.60
2023-05-09T10:46:39.103Z,4.55
2023-05-09T10:51:03.354Z,4.85
2023-05-09T10:55:16.009Z,4.07
2023-05-09T10:59:43.023Z,5.00
2023-05-09T11:03:58.225Z,4.10
2023-05-09T11:08:31.509Z,3.95
2023-05-09T11:13:01.145Z,4.25
2023-05-09T11:17:23.927Z,4.78
2023-05-09T11:22:03.729Z,4.95
2023-05-09T11:26:17.808Z,4.93
2023-05-09T11:30:44.603Z,4.18
2023-05-09T11:35:22.073Z,5.32
2023-05-09T11:39:34.663Z,5.83
2023-05-09T11:43:47.196Z,5.45
2023-05-09T11:48:01.523Z,6.35
2023-05-09T11:52:14.059Z,5.82
2023-05-09T11:56:36.276Z,4.90
2023-05-09T12:00:50.753Z,4.93
2023-05-09T12:05:15.655Z,5.97
2023-05-09T12:09:38.994Z,5.47
2023-05-09T12:13:53.426Z,6.28
2023-05-09T12:18:08.822Z,5.15
2023-05-09T12:22:22.349Z,4.72
2023-05-09T12:26:34.770Z,5.13
2023-05-09T12:30:47.610Z,5.68
2023-05-09T12:35:11.350Z,5.32
2023-05-09T12:39:25.239Z,5.13
2023-05-09T12:43:40.444Z,4.97
2023-05-09T12:47:54.414Z,5.18
2023-05-09T12:52:18.237Z,5.20
2023-05-09T12:56:35.348Z,5.53
2023-05-09T13:00:48.716Z,5.57
2023-05-09T13:05:19.580Z,4.88
2023-05-09T13:09:32.324Z,4.32
2023-05-09T13:13:44.818Z,5.00
2023-05-09T13:17:57.279Z,4.53
2023-05-09T13:22:12.254Z,4.80
2023-05-09T13:26:25.113Z,4.18
2023-05-09T13:30:37.589Z,4.25
2023-05-09T13:34:50.179Z,3.90
2023-05-09T13:39:02.700Z,3.90
2023-05-09T13:43:15.099Z,3.72
2023-05-09T13:47:27.893Z,3.70
2023-05-09T13:51:45.457Z,3.40
2023-05-09T13:55:57.979Z,3.65
2023-05-09T14:00:12.797Z,3.85
2023-05-09T14:04:30.866Z,3.33
2023-05-09T14:08:43.605Z,3.97
2023-05-09T14:12:56.070Z,3.20
2023-05-09T14:17:08.500Z,3.55
2023-05-09T14:21:20.935Z,3.40
2023-05-09T14:25:33.974Z,3.53
2023-05-09T14:29:46.666Z,3.70
2023-05-09T14:34:10.074Z,3.65
2023-05-09T14:38:23.403Z,3.40
2023-05-09T14:42:36.366Z,3.38
2023-05-09T14:46:49.297Z,3.35
2023-05-09T14:51:02.015Z,2.85
2023-05-09T14:55:14.564Z,3.20
2023-05-09T14:59:31.169Z,3.10
2023-05-09T15:03:48.910Z,4.32
2023-05-09T15:08:01.815Z,3.40
2023-05-09T15:12:14.387Z,2.75
2023-05-09T15:16:27.355Z,2.60
2023-05-09T15:20:40.208Z,2.65
2023-05-09T15:24:52.764Z,2.70
2023-05-09T15:29:05.196Z,2.95
2023-05-09T15:33:18.406Z,2.97
2023-05-09T15:37:30.851Z,2.17
2023-05-09T15:41:43.366Z,2.72
2023-05-09T15:45:56.350Z,2.75
2023-05-09T15:50:09.510Z,3.20
2023-05-09T15:54:22.049Z,2.75
2023-05-09T15:58:35.020Z,2.80
2023-05-09T16:02:47.683Z,2.83
2023-05-09T16:07:03.126Z,3.03
2023-05-09T16:11:16.238Z,2.88
2023-05-09T16:15:28.702Z,2.58
2023-05-09T16:19:41.786Z,2.90
2023-05-09T16:23:54.239Z,2.47
2023-05-09T16:28:16.700Z,2.45
2023-05-09T16:32:29.958Z,2.50
2023-05-09T16:36:44.896Z,2.67
2023-05-09T16:40:57.406Z,2.85
2023-05-09T16:45:10.764Z,2.38
2023-05-09T16:49:23.176Z,2.53
2023-05-09T16:53:35.623Z,2.53
2023-05-09T16:57:58.014Z,2.72
2023-05-09T17:02:10.465Z,2.50
2023-05-09T17:06:23.017Z,2.40
2023-05-09T17:10:45.567Z,2.47
2023-05-09T17:14:58.016Z,2.60
2023-05-09T17:19:10.444Z,2.50
2023-05-09T17:23:23.047Z,2.50
2023-05-09T17:27:35.551Z,2.55
2023-05-09T17:31:48.082Z,3.08
2023-05-09T17:36:00.869Z,2.83
2023-05-09T17:40:14.607Z,2.78
2023-05-09T17:44:28.036Z,2.97
2023-05-09T17:48:41.500Z,3.20
2023-05-09T17:52:55.703Z,3.22
2023-05-09T17:57:09.273Z,3.20
2023-05-09T18:01:21.759Z,3.22
2023-05-09T18:05:35.486Z,3.30
2023-05-09T18:09:48.189Z,2.72
2023-05-09T18:14:00.631Z,3.03
2023-05-09T18:18:14.763Z,3.20
2023-05-09T18:22:27.442Z,2.70
2023-05-09T18:26:39.881Z,2.50
2023-05-09T18:31:02.414Z,2.60
2023-05-09T18:35:14.907Z,2.58
2023-05-09T18:39:27.762Z,2.65
2023-05-09T18:43:46.536Z,2.83
2023-05-09T18:47:59.261Z,2.97
2023-05-09T18:52:12.074Z,2.30
2023-05-09T18:56:26.318Z,2.67
2023-05-09T19:00:40.230Z,2.42
2023-05-09T19:04:53.245Z,2.83
2023-05-09T19:09:06.404Z,2.30
2023-05-09T19:13:19.008Z,2.80
2023-05-09T19:17:31.563Z,3.00
2023-05-09T19:21:44.477Z,3.05
2023-05-09T19:25:57.287Z,2.97
2023-05-09T19:30:21.585Z,2.45
2023-05-09T19:34:35.166Z,2.55
2023-05-09T19:38:47.747Z,2.67
2023-05-09T19:43:00.311Z,2.55
2023-05-09T19:47:12.801Z,2.70
2023-05-09T19:51:25.279Z,2.55
2023-05-09T19:55:48.598Z,2.40
2023-05-09T20:00:01.017Z,2.33
2023-05-09T20:04:24.802Z,2.70
2023-05-09T20:08:37.423Z,2.38
2023-05-09T20:13:00.178Z,2.20
2023-05-09T20:17:21.145Z,2.50
2023-05-09T20:21:33.773Z,2.80
2023-05-09T20:25:46.185Z,2.63
2023-05-09T20:29:58.625Z,2.90
2023-05-09T20:34:14.063Z,2.65
2023-05-09T20:38:36.929Z,2.90
2023-05-09T20:42:49.346Z,2.60
2023-05-09T20:47:01.776Z,2.78
2023-05-09T20:51:14.173Z,2.85
2023-05-09T20:55:26.610Z,2.88
2023-05-09T20:59:39.057Z,2.63
2023-05-09T21:03:51.504Z,3.22
2023-05-09T21:08:04.133Z,2.80
2023-05-09T21:12:16.796Z,3.10
2023-05-09T21:16:39.369Z,2.20
2023-05-09T21:20:52.795Z,2.92
2023-05-09T21:25:05.664Z,2.55
2023-05-09T21:29:18.122Z,3.10
2023-05-09T21:33:30.814Z,2.55
2023-05-09T21:37:43.399Z,2.22
2023-05-09T21:41:55.861Z,2.67
2023-05-09T21:46:08.323Z,2.15
2023-05-09T21:50:20.934Z,1.73
2023-05-09T21:54:36.781Z,1.05
2023-05-09T21:58:59.175Z,1.30
2023-05-09T22:03:11.840Z,1.10
2023-05-09T22:07:24.482Z,0.57
2023-05-09T22:11:37.430Z,0.50
2023-05-09T22:15:49.973Z,0.30
2023-05-09T22:20:13.246Z,0.32
2023-05-09T22:24:26.216Z,0.20
2023-05-09T22:28:39.079Z,0.30
2023-05-09T22:32:56.487Z,0.45
2023-05-09T22:37:09.111Z,0.47
2023-05-09T22:41:31.517Z,0.30
2023-05-09T22:45:44.631Z,0.10
2023-05-09T22:49:57.211Z,0.10
2023-05-09T22:54:22.148Z,0.10
2023-05-09T22:58:34.571Z,0.25
2023-05-09T23:02:47.076Z,0.30
2023-05-09T23:06:59.634Z,0.20
2023-05-09T23:11:12.083Z,0.20
2023-05-09T23:15:24.554Z,0.30
2023-05-09T23:19:37.021Z,0.30
2023-05-09T23:23:49.457Z,0.25
2023-05-09T23:28:05.012Z,0.30
2023-05-09T23:32:17.478Z,0.40
2023-05-09T23:36:30.079Z,0.30
2023-05-09T23:40:46.841Z,0.52
2023-05-09T23:45:00.457Z,0.38
2023-05-09T23:49:14.059Z,0.50
2023-05-09T23:53:26.911Z,0.40
2023-05-09T23:57:39.382Z,0.52
